sensor_id;sensor_type;location;lat;lon;timestamp;pressure;altitude;pressure_sealevel;temperature;humidity
62697;BME280;48761;42.680;23.312;2023-06-14T00:00:08;94566.50;;;18.03;97.27
62697;BME280;48761;42.680;23.312;2023-06-14T00:02:34;94559.78;;;17.99;97.61
62697;BME280;48761;42.680;23.312;2023-06-14T00:05:00;94559.97;;;18.06;97.13
62697;BME280;48761;42.680;23.312;2023-06-14T00:07:37;94556.75;;;18.02;97.50
62697;BME280;48761;42.680;23.312;2023-06-14T00:10:04;94551.03;;;17.97;97.67
62697;BME280;48761;42.680;23.312;2023-06-14T00:12:30;94549.88;;;18.00;97.83
62697;BME280;48761;42.680;23.312;2023-06-14T00:14:57;94547.75;;;17.85;96.86
62697;BME280;48761;42.680;23.312;2023-06-14T00:17:22;94554.00;;;17.86;96.91
62697;BME280;48761;42.680;23.312;2023-06-14T00:19:49;94541.41;;;17.86;97.44
62697;BME280;48761;42.680;23.312;2023-06-14T00:22:15;94542.91;;;17.89;98.12
62697;BME280;48761;42.680;23.312;2023-06-14T00:24:40;94546.47;;;17.89;97.14
62697;BME280;48761;42.680;23.312;2023-06-14T00:27:06;94546.59;;;17.88;96.30
62697;BME280;48761;42.680;23.312;2023-06-14T00:29:32;94547.44;;;17.88;96.55
62697;BME280;48761;42.680;23.312;2023-06-14T00:31:58;94544.94;;;17.87;96.48
62697;BME280;48761;42.680;23.312;2023-06-14T00:34:24;94514.91;;;17.65;97.24
62697;BME280;48761;42.680;23.312;2023-06-14T00:36:50;94549.59;;;17.76;96.40
62697;BME280;48761;42.680;23.312;2023-06-14T00:39:16;94539.50;;;17.78;96.45
62697;BME280;48761;42.680;23.312;2023-06-14T00:41:42;94528.28;;;17.83;96.52
62697;BME280;48761;42.680;23.312;2023-06-14T00:44:08;94545.75;;;17.87;97.63
62697;BME280;48761;42.680;23.312;2023-06-14T00:46:34;94535.22;;;17.94;98.23
62697;BME280;48761;42.680;23.312;2023-06-14T00:49:01;94531.19;;;17.98;97.93
62697;BME280;48761;42.680;23.312;2023-06-14T00:51:27;94528.16;;;17.93;98.22
62697;BME280;48761;42.680;23.312;2023-06-14T00:53:53;94537.53;;;17.89;97.22
62697;BME280;48761;42.680;23.312;2023-06-14T00:56:19;94514.59;;;17.68;97.07
62697;BME280;48761;42.680;23.312;2023-06-14T00:58:45;94530.78;;;17.76;97.63
62697;BME280;48761;42.680;23.312;2023-06-14T01:01:11;94513.13;;;17.74;97.91
62697;BME280;48761;42.680;23.312;2023-06-14T01:03:37;94524.38;;;17.77;97.72
62697;BME280;48761;42.680;23.312;2023-06-14T01:06:15;94528.81;;;17.87;98.19
62697;BME280;48761;42.680;23.312;2023-06-14T01:08:51;94532.81;;;17.83;97.56
62697;BME280;48761;42.680;23.312;2023-06-14T01:11:29;94526.19;;;17.68;97.47
62697;BME280;48761;42.680;23.312;2023-06-14T01:13:57;94514.59;;;17.68;97.09
62697;BME280;48761;42.680;23.312;2023-06-14T01:16:25;94528.75;;;17.78;97.45
62697;BME280;48761;42.680;23.312;2023-06-14T01:18:53;94529.75;;;17.77;97.79
62697;BME280;48761;42.680;23.312;2023-06-14T01:21:24;94529.72;;;17.69;97.26
62697;BME280;48761;42.680;23.312;2023-06-14T01:23:51;94535.47;;;17.74;96.40
62697;BME280;48761;42.680;23.312;2023-06-14T01:26:17;94526.00;;;17.62;96.29
62697;BME280;48761;42.680;23.312;2023-06-14T01:28:43;94538.09;;;17.66;96.36
62697;BME280;48761;42.680;23.312;2023-06-14T01:31:09;94523.34;;;17.70;96.80
62697;BME280;48761;42.680;23.312;2023-06-14T01:33:36;94497.34;;;17.44;96.66
62697;BME280;48761;42.680;23.312;2023-06-14T01:36:03;94517.88;;;17.53;96.63
62697;BME280;48761;42.680;23.312;2023-06-14T01:38:31;94511.53;;;17.54;96.58
62697;BME280;48761;42.680;23.312;2023-06-14T01:40:59;94516.00;;;17.45;97.03
62697;BME280;48761;42.680;23.312;2023-06-14T01:43:25;94521.19;;;17.47;97.80
62697;BME280;48761;42.680;23.312;2023-06-14T01:45:53;94525.03;;;17.71;97.67
62697;BME280;48761;42.680;23.312;2023-06-14T01:48:20;94506.09;;;17.46;97.03
62697;BME280;48761;42.680;23.312;2023-06-14T01:50:48;94513.03;;;17.30;96.76
62697;BME280;48761;42.680;23.312;2023-06-14T01:53:14;94517.66;;;17.20;96.77
62697;BME280;48761;42.680;23.312;2023-06-14T01:55:40;94524.09;;;17.27;97.08
62697;BME280;48761;42.680;23.312;2023-06-14T01:58:06;94510.56;;;17.37;96.67
62697;BME280;48761;42.680;23.312;2023-06-14T02:00:33;94536.00;;;17.51;96.19
62697;BME280;48761;42.680;23.312;2023-06-14T02:02:59;94533.03;;;17.63;96.40
62697;BME280;48761;42.680;23.312;2023-06-14T02:05:25;94537.69;;;17.52;95.67
62697;BME280;48761;42.680;23.312;2023-06-14T02:07:52;94540.72;;;17.57;95.84
62697;BME280;48761;42.680;23.312;2023-06-14T02:10:18;94546.31;;;17.38;96.28
62697;BME280;48761;42.680;23.312;2023-06-14T02:12:44;94546.66;;;17.61;95.85
62697;BME280;48761;42.680;23.312;2023-06-14T02:15:10;94545.50;;;17.64;95.51
62697;BME280;48761;42.680;23.312;2023-06-14T02:17:36;94553.25;;;17.67;95.27
62697;BME280;48761;42.680;23.312;2023-06-14T02:20:02;94552.88;;;17.62;95.63
62697;BME280;48761;42.680;23.312;2023-06-14T02:22:28;94557.28;;;17.71;95.89
62697;BME280;48761;42.680;23.312;2023-06-14T02:24:54;94553.56;;;17.64;95.62
62697;BME280;48761;42.680;23.312;2023-06-14T02:27:19;94555.28;;;17.73;95.74
62697;BME280;48761;42.680;23.312;2023-06-14T02:29:45;94557.59;;;17.68;96.11
62697;BME280;48761;42.680;23.312;2023-06-14T02:32:11;94557.34;;;17.79;95.93
62697;BME280;48761;42.680;23.312;2023-06-14T02:34:37;94545.78;;;17.61;96.75
62697;BME280;48761;42.680;23.312;2023-06-14T02:37:03;94557.91;;;17.65;95.65
62697;BME280;48761;42.680;23.312;2023-06-14T02:39:29;94555.19;;;17.56;95.53
62697;BME280;48761;42.680;23.312;2023-06-14T02:41:55;94555.19;;;17.56;95.60
62697;BME280;48761;42.680;23.312;2023-06-14T02:44:25;94556.91;;;17.66;95.55
62697;BME280;48761;42.680;23.312;2023-06-14T02:46:51;94536.69;;;17.53;96.06
62697;BME280;48761;42.680;23.312;2023-06-14T02:49:17;94547.81;;;17.58;95.81
62697;BME280;48761;42.680;23.312;2023-06-14T02:51:43;94552.88;;;17.62;96.42
62697;BME280;48761;42.680;23.312;2023-06-14T02:54:09;94552.22;;;17.68;96.66
62697;BME280;48761;42.680;23.312;2023-06-14T02:56:35;94536.22;;;17.58;96.07
62697;BME280;48761;42.680;23.312;2023-06-14T02:59:01;94562.59;;;17.63;96.45
62697;BME280;48761;42.680;23.312;2023-06-14T03:01:28;94556.34;;;17.54;96.96
62697;BME280;48761;42.680;23.312;2023-06-14T03:03:54;94560.13;;;17.43;96.93
62697;BME280;48761;42.680;23.312;2023-06-14T03:06:19;94558.34;;;17.52;96.16
62697;BME280;48761;42.680;23.312;2023-06-14T03:08:45;94550.91;;;17.19;97.11
62697;BME280;48761;42.680;23.312;2023-06-14T03:11:11;94559.47;;;17.04;98.04
62697;BME280;48761;42.680;23.312;2023-06-14T03:13:38;94553.38;;;16.94;98.52
62697;BME280;48761;42.680;23.312;2023-06-14T03:16:04;94557.59;;;16.78;99.17
62697;BME280;48761;42.680;23.312;2023-06-14T03:18:30;94577.84;;;16.90;97.90
62697;BME280;48761;42.680;23.312;2023-06-14T03:20:56;94570.31;;;16.76;98.88
62697;BME280;48761;42.680;23.312;2023-06-14T03:23:24;94585.50;;;16.85;98.59
62697;BME280;48761;42.680;23.312;2023-06-14T03:25:50;94575.91;;;17.01;98.59
62697;BME280;48761;42.680;23.312;2023-06-14T03:28:16;94578.44;;;17.21;97.56
62697;BME280;48761;42.680;23.312;2023-06-14T03:30:42;94574.00;;;17.11;97.81
62697;BME280;48761;42.680;23.312;2023-06-14T03:33:08;94570.78;;;17.26;97.37
62697;BME280;48761;42.680;23.312;2023-06-14T03:35:34;94585.63;;;17.39;96.97
62697;BME280;48761;42.680;23.312;2023-06-14T03:38:00;94575.19;;;17.35;95.95
62697;BME280;48761;42.680;23.312;2023-06-14T03:40:26;94579.38;;;17.56;96.87
62697;BME280;48761;42.680;23.312;2023-06-14T03:42:53;94588.06;;;17.50;95.43
62697;BME280;48761;42.680;23.312;2023-06-14T03:45:20;94580.78;;;17.42;95.81
62697;BME280;48761;42.680;23.312;2023-06-14T03:47:46;94579.94;;;17.42;95.78
62697;BME280;48761;42.680;23.312;2023-06-14T03:50:12;94585.53;;;17.48;95.26
62697;BME280;48761;42.680;23.312;2023-06-14T03:52:38;94584.25;;;17.34;95.69
62697;BME280;48761;42.680;23.312;2023-06-14T03:55:05;94561.25;;;17.13;95.87
62697;BME280;48761;42.680;23.312;2023-06-14T03:57:31;94582.94;;;17.39;96.12
62697;BME280;48761;42.680;23.312;2023-06-14T03:59:57;94585.00;;;17.45;95.80
62697;BME280;48761;42.680;23.312;2023-06-14T04:02:23;94580.34;;;17.29;95.75
62697;BME280;48761;42.680;23.312;2023-06-14T04:04:49;94568.75;;;17.28;95.11
62697;BME280;48761;42.680;23.312;2023-06-14T04:07:15;94593.13;;;17.53;95.50
62697;BME280;48761;42.680;23.312;2023-06-14T04:09:42;94577.31;;;17.50;94.72
62697;BME280;48761;42.680;23.312;2023-06-14T04:12:08;94590.59;;;17.78;94.65
62697;BME280;48761;42.680;23.312;2023-06-14T04:14:34;94589.97;;;17.85;95.18
62697;BME280;48761;42.680;23.312;2023-06-14T04:17:00;94592.28;;;17.79;95.83
62697;BME280;48761;42.680;23.312;2023-06-14T04:19:26;94596.00;;;17.87;95.21
62697;BME280;48761;42.680;23.312;2023-06-14T04:21:52;94586.81;;;18.33;95.39
62697;BME280;48761;42.680;23.312;2023-06-14T04:24:19;94578.22;;;18.89;94.97
62697;BME280;48761;42.680;23.312;2023-06-14T04:26:45;94592.06;;;19.36;93.21
62697;BME280;48761;42.680;23.312;2023-06-14T04:29:11;94576.91;;;19.27;90.14
62697;BME280;48761;42.680;23.312;2023-06-14T04:31:38;94590.69;;;19.74;90.30
62697;BME280;48761;42.680;23.312;2023-06-14T04:34:03;94582.47;;;20.24;88.33
62697;BME280;48761;42.680;23.312;2023-06-14T04:36:30;94592.13;;;20.50;85.10
62697;BME280;48761;42.680;23.312;2023-06-14T04:38:55;94588.91;;;20.87;83.45
62697;BME280;48761;42.680;23.312;2023-06-14T04:41:21;94587.22;;;21.18;82.39
62697;BME280;48761;42.680;23.312;2023-06-14T04:43:47;94585.59;;;21.47;80.41
62697;BME280;48761;42.680;23.312;2023-06-14T04:46:13;94588.34;;;21.63;78.13
62697;BME280;48761;42.680;23.312;2023-06-14T04:48:39;94586.88;;;21.75;76.50
62697;BME280;48761;42.680;23.312;2023-06-14T04:51:06;94564.44;;;21.90;77.20
62697;BME280;48761;42.680;23.312;2023-06-14T04:53:32;94591.31;;;21.91;75.48
62697;BME280;48761;42.680;23.312;2023-06-14T04:55:58;94598.16;;;21.79;75.22
62697;BME280;48761;42.680;23.312;2023-06-14T04:58:24;94598.66;;;21.59;74.92
62697;BME280;48761;42.680;23.312;2023-06-14T05:00:50;94600.16;;;21.61;75.47
62697;BME280;48761;42.680;23.312;2023-06-14T05:03:16;94599.22;;;21.15;75.23
62697;BME280;48761;42.680;23.312;2023-06-14T05:05:42;94605.22;;;20.94;75.28
62697;BME280;48761;42.680;23.312;2023-06-14T05:08:08;94612.25;;;20.80;76.96
62697;BME280;48761;42.680;23.312;2023-06-14T05:10:34;94609.66;;;20.55;75.99
62697;BME280;48761;42.680;23.312;2023-06-14T05:12:59;94615.56;;;19.93;77.69
62697;BME280;48761;42.680;23.312;2023-06-14T05:15:26;94599.97;;;19.55;80.10
62697;BME280;48761;42.680;23.312;2023-06-14T05:17:52;94611.69;;;19.96;79.54
62697;BME280;48761;42.680;23.312;2023-06-14T05:20:18;94610.50;;;19.98;80.09
62697;BME280;48761;42.680;23.312;2023-06-14T05:22:44;94610.84;;;20.03;80.03
62697;BME280;48761;42.680;23.312;2023-06-14T05:25:10;94608.75;;;20.31;80.24
62697;BME280;48761;42.680;23.312;2023-06-14T05:27:36;94625.50;;;20.58;78.50
62697;BME280;48761;42.680;23.312;2023-06-14T05:30:02;94615.84;;;20.32;79.02
62697;BME280;48761;42.680;23.312;2023-06-14T05:32:28;94618.09;;;20.20;78.87
62697;BME280;48761;42.680;23.312;2023-06-14T05:34:54;94621.75;;;20.27;79.25
62697;BME280;48761;42.680;23.312;2023-06-14T05:37:20;94610.84;;;20.03;79.73
62697;BME280;48761;42.680;23.312;2023-06-14T05:39:46;94629.06;;;19.85;79.34
62697;BME280;48761;42.680;23.312;2023-06-14T05:42:12;94629.06;;;20.01;81.09
62697;BME280;48761;42.680;23.312;2023-06-14T05:44:38;94616.38;;;20.19;81.33
62697;BME280;48761;42.680;23.312;2023-06-14T05:47:04;94622.44;;;20.21;80.43
62697;BME280;48761;42.680;23.312;2023-06-14T05:49:30;94636.41;;;20.33;80.56
62697;BME280;48761;42.680;23.312;2023-06-14T05:51:56;94634.72;;;20.32;81.70
62697;BME280;48761;42.680;23.312;2023-06-14T05:54:22;94636.13;;;20.19;81.13
62697;BME280;48761;42.680;23.312;2023-06-14T05:56:48;94646.88;;;20.11;80.81
62697;BME280;48761;42.680;23.312;2023-06-14T05:59:14;94640.19;;;19.90;81.23
62697;BME280;48761;42.680;23.312;2023-06-14T06:01:40;94629.72;;;20.03;81.24
62697;BME280;48761;42.680;23.312;2023-06-14T06:04:06;94640.47;;;20.20;80.89
62697;BME280;48761;42.680;23.312;2023-06-14T06:06:32;94647.94;;;19.85;81.57
62697;BME280;48761;42.680;23.312;2023-06-14T06:08:58;94644.94;;;19.79;81.64
62697;BME280;48761;42.680;23.312;2023-06-14T06:11:24;94649.13;;;19.99;81.28
62697;BME280;48761;42.680;23.312;2023-06-14T06:13:50;94644.56;;;19.99;81.83
62697;BME280;48761;42.680;23.312;2023-06-14T06:16:16;94640.19;;;19.90;82.40
62697;BME280;48761;42.680;23.312;2023-06-14T06:18:42;94625.19;;;19.87;83.03
62697;BME280;48761;42.680;23.312;2023-06-14T06:21:08;94650.31;;;19.88;83.46
62697;BME280;48761;42.680;23.312;2023-06-14T06:23:34;94658.59;;;19.61;84.03
62697;BME280;48761;42.680;23.312;2023-06-14T06:26:00;94651.31;;;19.20;85.31
62697;BME280;48761;42.680;23.312;2023-06-14T06:28:26;94659.44;;;19.53;85.09
62697;BME280;48761;42.680;23.312;2023-06-14T06:30:52;94650.34;;;19.63;83.78
62697;BME280;48761;42.680;23.312;2023-06-14T06:33:18;94644.94;;;19.63;84.19
62697;BME280;48761;42.680;23.312;2023-06-14T06:35:44;94663.13;;;19.86;84.07
62697;BME280;48761;42.680;23.312;2023-06-14T06:38:10;94664.31;;;19.91;83.11
62697;BME280;48761;42.680;23.312;2023-06-14T06:40:36;94654.53;;;19.65;83.04
62697;BME280;48761;42.680;23.312;2023-06-14T06:43:02;94667.50;;;19.87;83.02
62697;BME280;48761;42.680;23.312;2023-06-14T06:45:28;94668.84;;;19.91;82.09
62697;BME280;48761;42.680;23.312;2023-06-14T06:47:54;94647.78;;;19.78;81.63
62697;BME280;48761;42.680;23.312;2023-06-14T06:50:21;94640.72;;;19.77;81.49
62697;BME280;48761;42.680;23.312;2023-06-14T06:52:47;94659.25;;;19.88;81.64
62697;BME280;48761;42.680;23.312;2023-06-14T06:55:13;94666.97;;;20.00;81.76
62697;BME280;48761;42.680;23.312;2023-06-14T06:57:39;94651.31;;;19.95;81.67
62697;BME280;48761;42.680;23.312;2023-06-14T07:00:06;94649.59;;;20.02;81.02
62697;BME280;48761;42.680;23.312;2023-06-14T07:02:32;94660.34;;;20.36;80.67
62697;BME280;48761;42.680;23.312;2023-06-14T07:04:59;94657.69;;;20.02;79.86
62697;BME280;48761;42.680;23.312;2023-06-14T07:07:25;94669.19;;;19.96;81.53
62697;BME280;48761;42.680;23.312;2023-06-14T07:09:51;94667.50;;;19.87;81.30
62697;BME280;48761;42.680;23.312;2023-06-14T07:12:17;94661.47;;;19.76;80.83
62697;BME280;48761;42.680;23.312;2023-06-14T07:14:43;94662.59;;;19.82;80.97
62697;BME280;48761;42.680;23.312;2023-06-14T07:17:09;94668.88;;;19.74;80.87
62697;BME280;48761;42.680;23.312;2023-06-14T07:19:35;94633.47;;;19.52;80.76
62697;BME280;48761;42.680;23.312;2023-06-14T07:22:01;94661.28;;;19.69;81.22
62697;BME280;48761;42.680;23.312;2023-06-14T07:24:26;94641.88;;;19.99;78.85
62697;BME280;48761;42.680;23.312;2023-06-14T07:26:52;94649.59;;;20.11;78.08
62697;BME280;48761;42.680;23.312;2023-06-14T07:29:18;94637.13;;;20.18;76.20
62697;BME280;48761;42.680;23.312;2023-06-14T07:31:44;94651.09;;;20.70;76.24
62697;BME280;48761;42.680;23.312;2023-06-14T07:34:10;94647.56;;;20.30;76.86
62697;BME280;48761;42.680;23.312;2023-06-14T07:36:36;94644.50;;;20.33;75.07
62697;BME280;48761;42.680;23.312;2023-06-14T07:39:02;94663.47;;;20.88;76.03
62697;BME280;48761;42.680;23.312;2023-06-14T07:41:28;94644.31;;;21.77;71.37
62697;BME280;48761;42.680;23.312;2023-06-14T07:43:54;94654.38;;;22.53;69.60
62697;BME280;48761;42.680;23.312;2023-06-14T07:46:20;94652.22;;;22.63;67.74
62697;BME280;48761;42.680;23.312;2023-06-14T07:48:46;94648.88;;;21.77;70.58
62697;BME280;48761;42.680;23.312;2023-06-14T07:51:12;94661.00;;;22.04;69.77
62697;BME280;48761;42.680;23.312;2023-06-14T07:53:38;94666.88;;;21.93;69.89
62697;BME280;48761;42.680;23.312;2023-06-14T07:56:04;94669.94;;;21.90;70.95
62697;BME280;48761;42.680;23.312;2023-06-14T07:58:30;94652.78;;;21.74;69.38
62697;BME280;48761;42.680;23.312;2023-06-14T08:00:56;94667.16;;;21.98;69.86
62697;BME280;48761;42.680;23.312;2023-06-14T08:03:22;94649.91;;;21.99;69.54
62697;BME280;48761;42.680;23.312;2023-06-14T08:05:48;94663.47;;;22.30;69.25
62697;BME280;48761;42.680;23.312;2023-06-14T08:08:14;94675.78;;;22.47;69.50
62697;BME280;48761;42.680;23.312;2023-06-14T08:10:40;94687.00;;;22.44;67.05
62697;BME280;48761;42.680;23.312;2023-06-14T08:13:06;94684.19;;;22.83;69.76
62697;BME280;48761;42.680;23.312;2023-06-14T08:15:32;94686.63;;;22.47;68.86
62697;BME280;48761;42.680;23.312;2023-06-14T08:17:57;94696.53;;;22.70;68.92
62697;BME280;48761;42.680;23.312;2023-06-14T08:20:23;94694.00;;;22.84;69.30
62697;BME280;48761;42.680;23.312;2023-06-14T08:22:49;94687.09;;;22.81;68.36
62697;BME280;48761;42.680;23.312;2023-06-14T08:25:15;94687.84;;;22.60;68.02
62697;BME280;48761;42.680;23.312;2023-06-14T08:27:41;94685.53;;;22.03;69.08
62697;BME280;48761;42.680;23.312;2023-06-14T08:30:08;94691.38;;;21.68;71.21
62697;BME280;48761;42.680;23.312;2023-06-14T08:32:34;94684.03;;;21.06;72.39
62697;BME280;48761;42.680;23.312;2023-06-14T08:35:00;94695.19;;;21.58;72.82
62697;BME280;48761;42.680;23.312;2023-06-14T08:37:25;94683.28;;;21.68;69.85
62697;BME280;48761;42.680;23.312;2023-06-14T08:39:51;94675.56;;;21.09;72.15
62697;BME280;48761;42.680;23.312;2023-06-14T08:42:18;94686.28;;;21.26;72.29
62697;BME280;48761;42.680;23.312;2023-06-14T08:44:47;94676.25;;;21.58;70.47
62697;BME280;48761;42.680;23.312;2023-06-14T08:47:14;94678.97;;;21.58;71.08
62697;BME280;48761;42.680;23.312;2023-06-14T08:49:44;94676.56;;;21.64;70.33
62697;BME280;48761;42.680;23.312;2023-06-14T08:52:11;94675.84;;;22.09;67.79
62697;BME280;48761;42.680;23.312;2023-06-14T08:54:37;94679.31;;;22.33;66.58
62697;BME280;48761;42.680;23.312;2023-06-14T08:57:04;94681.19;;;23.30;65.60
62697;BME280;48761;42.680;23.312;2023-06-14T08:59:30;94676.72;;;23.81;63.59
62697;BME280;48761;42.680;23.312;2023-06-14T09:01:57;94678.25;;;23.10;63.49
62697;BME280;48761;42.680;23.312;2023-06-14T09:04:25;94669.69;;;22.45;64.52
62697;BME280;48761;42.680;23.312;2023-06-14T09:06:51;94681.91;;;23.02;63.61
62697;BME280;48761;42.680;23.312;2023-06-14T09:09:20;94674.53;;;22.65;64.82
62697;BME280;48761;42.680;23.312;2023-06-14T09:11:46;94668.31;;;22.49;65.09
62697;BME280;48761;42.680;23.312;2023-06-14T09:14:12;94666.34;;;22.43;65.90
62697;BME280;48761;42.680;23.312;2023-06-14T09:16:39;94656.66;;;22.34;66.50
62697;BME280;48761;42.680;23.312;2023-06-14T09:19:04;94654.50;;;23.12;64.10
62697;BME280;48761;42.680;23.312;2023-06-14T09:21:34;94660.69;;;23.43;64.82
62697;BME280;48761;42.680;23.312;2023-06-14T09:24:00;94654.88;;;23.46;61.23
62697;BME280;48761;42.680;23.312;2023-06-14T09:26:26;94659.13;;;23.77;60.88
62697;BME280;48761;42.680;23.312;2023-06-14T09:28:52;94657.09;;;23.57;61.66
62697;BME280;48761;42.680;23.312;2023-06-14T09:31:19;94661.00;;;22.04;65.09
62697;BME280;48761;42.680;23.312;2023-06-14T09:33:49;94660.34;;;22.17;64.91
62697;BME280;48761;42.680;23.312;2023-06-14T09:36:23;94645.16;;;22.01;65.08
62697;BME280;48761;42.680;23.312;2023-06-14T09:38:54;94653.38;;;22.23;66.13
62697;BME280;48761;42.680;23.312;2023-06-14T09:41:20;94637.84;;;21.87;66.92
62697;BME280;48761;42.680;23.312;2023-06-14T09:43:47;94667.72;;;22.09;66.37
62697;BME280;48761;42.680;23.312;2023-06-14T09:46:13;94660.19;;;21.80;66.56
62697;BME280;48761;42.680;23.312;2023-06-14T09:48:39;94637.38;;;21.59;66.63
62697;BME280;48761;42.680;23.312;2023-06-14T09:51:06;94632.19;;;22.57;65.34
62697;BME280;48761;42.680;23.312;2023-06-14T09:53:34;94651.22;;;22.79;63.74
62697;BME280;48761;42.680;23.312;2023-06-14T09:56:04;94638.63;;;22.71;64.57
62697;BME280;48761;42.680;23.312;2023-06-14T09:58:34;94649.16;;;23.18;63.61
62697;BME280;48761;42.680;23.312;2023-06-14T10:01:02;94638.16;;;22.37;64.41
62697;BME280;48761;42.680;23.312;2023-06-14T10:03:30;94632.19;;;22.27;65.29
62697;BME280;48761;42.680;23.312;2023-06-14T10:05:58;94635.28;;;22.39;63.75
62697;BME280;48761;42.680;23.312;2023-06-14T10:08:30;94632.31;;;23.01;62.34
62697;BME280;48761;42.680;23.312;2023-06-14T10:10:56;94613.28;;;23.16;62.01
62697;BME280;48761;42.680;23.312;2023-06-14T10:13:22;94626.06;;;23.23;62.10
62697;BME280;48761;42.680;23.312;2023-06-14T10:16:04;94631.50;;;22.86;61.92
62697;BME280;48761;42.680;23.312;2023-06-14T10:21:37;94628.25;;;23.12;62.92
62697;BME280;48761;42.680;23.312;2023-06-14T10:24:08;94615.34;;;23.14;62.60
62697;BME280;48761;42.680;23.312;2023-06-14T10:26:50;94618.47;;;23.33;62.09
62697;BME280;48761;42.680;23.312;2023-06-14T10:29:16;94603.06;;;23.18;62.44
62697;BME280;48761;42.680;23.312;2023-06-14T10:31:48;94623.47;;;23.36;62.54
62697;BME280;48761;42.680;23.312;2023-06-14T10:34:30;94611.31;;;23.25;61.35
62697;BME280;48761;42.680;23.312;2023-06-14T10:39:30;94601.47;;;23.02;61.51
62697;BME280;48761;42.680;23.312;2023-06-14T10:41:57;94610.19;;;23.42;61.14
62697;BME280;48761;42.680;23.312;2023-06-14T10:46:52;94612.53;;;23.23;61.61
62697;BME280;48761;42.680;23.312;2023-06-14T10:49:18;94601.69;;;23.23;61.47
62697;BME280;48761;42.680;23.312;2023-06-14T10:51:49;94601.16;;;23.12;61.62
62697;BME280;48761;42.680;23.312;2023-06-14T10:54:16;94604.81;;;22.67;62.47
62697;BME280;48761;42.680;23.312;2023-06-14T10:56:50;94604.97;;;22.81;61.18
62697;BME280;48761;42.680;23.312;2023-06-14T10:59:17;94591.66;;;22.49;62.42
62697;BME280;48761;42.680;23.312;2023-06-14T11:04:47;94561.00;;;23.01;61.68
62697;BME280;48761;42.680;23.312;2023-06-14T11:12:59;94575.34;;;23.60;60.21
62697;BME280;48761;42.680;23.312;2023-06-14T11:15:33;94574.69;;;23.36;60.46
62697;BME280;48761;42.680;23.312;2023-06-14T11:18:05;94574.94;;;23.42;60.51
62697;BME280;48761;42.680;23.312;2023-06-14T11:20:33;94572.47;;;22.81;60.58
62697;BME280;48761;42.680;23.312;2023-06-14T11:22:59;94560.63;;;23.04;59.97
62697;BME280;48761;42.680;23.312;2023-06-14T11:25:25;94555.72;;;23.58;59.05
62697;BME280;48761;42.680;23.312;2023-06-14T11:27:52;94555.66;;;23.08;59.73
62697;BME280;48761;42.680;23.312;2023-06-14T11:30:18;94577.47;;;23.21;59.74
62697;BME280;48761;42.680;23.312;2023-06-14T11:32:48;94558.44;;;22.92;59.08
62697;BME280;48761;42.680;23.312;2023-06-14T11:35:15;94565.00;;;23.27;58.93
62697;BME280;48761;42.680;23.312;2023-06-14T11:37:41;94549.50;;;23.43;58.92
62697;BME280;48761;42.680;23.312;2023-06-14T11:40:08;94557.25;;;23.46;58.87
62697;BME280;48761;42.680;23.312;2023-06-14T11:42:34;94563.53;;;23.02;60.66
62697;BME280;48761;42.680;23.312;2023-06-14T11:45:00;94558.47;;;23.43;60.29
62697;BME280;48761;42.680;23.312;2023-06-14T11:47:36;94527.06;;;23.27;59.46
62697;BME280;48761;42.680;23.312;2023-06-14T11:50:03;94547.63;;;23.94;58.45
62697;BME280;48761;42.680;23.312;2023-06-14T11:52:30;94529.03;;;23.62;58.18
62697;BME280;48761;42.680;23.312;2023-06-14T11:54:57;94545.81;;;23.79;58.63
62697;BME280;48761;42.680;23.312;2023-06-14T11:57:23;94538.88;;;23.70;59.78
62697;BME280;48761;42.680;23.312;2023-06-14T11:59:49;94540.16;;;23.01;60.52
62697;BME280;48761;42.680;23.312;2023-06-14T12:02:16;94528.81;;;22.91;60.00
62697;BME280;48761;42.680;23.312;2023-06-14T12:04:43;94525.09;;;23.43;58.81
62697;BME280;48761;42.680;23.312;2023-06-14T12:07:14;94514.97;;;23.80;57.08
62697;BME280;48761;42.680;23.312;2023-06-14T12:12:22;94516.94;;;23.65;57.19
62697;BME280;48761;42.680;23.312;2023-06-14T12:14:49;94520.69;;;23.64;56.66
62697;BME280;48761;42.680;23.312;2023-06-14T12:17:16;94511.13;;;23.68;57.63
62697;BME280;48761;42.680;23.312;2023-06-14T12:19:44;94503.63;;;24.05;57.05
62697;BME280;48761;42.680;23.312;2023-06-14T12:22:11;94499.25;;;23.47;57.15
62697;BME280;48761;42.680;23.312;2023-06-14T12:24:37;94507.72;;;23.59;55.64
62697;BME280;48761;42.680;23.312;2023-06-14T12:27:03;94502.38;;;23.72;56.27
62697;BME280;48761;42.680;23.312;2023-06-14T12:29:30;94502.91;;;23.90;56.06
62697;BME280;48761;42.680;23.312;2023-06-14T12:31:57;94483.19;;;23.74;56.10
62697;BME280;48761;42.680;23.312;2023-06-14T12:34:23;94484.00;;;23.68;56.37
62697;BME280;48761;42.680;23.312;2023-06-14T12:36:50;94469.94;;;23.93;56.92
62697;BME280;48761;42.680;23.312;2023-06-14T12:39:16;94489.19;;;24.05;56.96
62697;BME280;48761;42.680;23.312;2023-06-14T12:41:42;94485.59;;;24.26;56.27
62697;BME280;48761;42.680;23.312;2023-06-14T12:44:09;94485.94;;;24.23;56.36
62697;BME280;48761;42.680;23.312;2023-06-14T12:46:36;94485.19;;;24.36;56.15
62697;BME280;48761;42.680;23.312;2023-06-14T12:49:02;94471.84;;;23.99;56.87
62697;BME280;48761;42.680;23.312;2023-06-14T12:51:28;94483.28;;;23.88;58.20
62697;BME280;48761;42.680;23.312;2023-06-14T12:53:54;94479.00;;;23.43;58.58
62697;BME280;48761;42.680;23.312;2023-06-14T12:56:20;94474.88;;;23.18;59.24
62697;BME280;48761;42.680;23.312;2023-06-14T12:58:46;94476.09;;;23.44;58.65
62697;BME280;48761;42.680;23.312;2023-06-14T13:01:12;94479.75;;;23.29;59.80
62697;BME280;48761;42.680;23.312;2023-06-14T13:03:38;94478.66;;;23.24;59.93
62697;BME280;48761;42.680;23.312;2023-06-14T13:06:04;94483.13;;;23.38;60.30